createdAt,value
2019-03-24T00:00:04.763Z,3.80
2019-03-24T00:02:54.311Z,3.80
2019-03-24T00:05:22.763Z,3.80
2019-03-24T00:07:51.215Z,3.80
2019-03-24T00:10:19.728Z,3.80
2019-03-24T00:12:48.178Z,3.70
2019-03-24T00:15:25.829Z,3.80
2019-03-24T00:17:46.932Z,3.80
2019-03-24T00:20:15.831Z,3.70
2019-03-24T00:22:44.276Z,3.80
2019-03-24T00:25:12.852Z,3.80
2019-03-24T00:27:41.379Z,3.80
2019-03-24T00:30:10.175Z,3.80
2019-03-24T00:32:38.747Z,3.80
2019-03-24T00:35:07.444Z,3.80
2019-03-24T00:37:35.897Z,3.80
2019-03-24T00:40:06.641Z,3.80
2019-03-24T00:42:35.084Z,3.70
2019-03-24T00:45:05.387Z,3.70
2019-03-24T00:47:33.887Z,3.70
2019-03-24T00:50:02.911Z,3.70
2019-03-24T00:52:34.103Z,3.70
2019-03-24T00:55:02.601Z,3.80
2019-03-24T00:57:31.065Z,3.70
2019-03-24T00:59:59.513Z,3.70
2019-03-24T01:02:28.024Z,3.70
2019-03-24T01:04:56.555Z,3.70
2019-03-24T01:07:25.113Z,3.70
2019-03-24T01:09:53.748Z,3.70
2019-03-24T01:12:22.206Z,3.70
2019-03-24T01:14:50.672Z,3.70
2019-03-24T01:17:19.258Z,3.70
2019-03-24T01:19:47.708Z,3.70
2019-03-24T01:22:16.174Z,3.80
2019-03-24T01:24:44.670Z,3.70
2019-03-24T01:27:13.121Z,3.70
2019-03-24T01:29:41.586Z,3.60
2019-03-24T01:32:10.158Z,3.70
2019-03-24T01:34:38.604Z,3.60
2019-03-24T01:37:07.123Z,3.70
2019-03-24T01:39:35.704Z,3.70
2019-03-24T01:42:04.302Z,3.60
2019-03-24T01:44:33.425Z,3.60
2019-03-24T01:47:02.019Z,3.60
2019-03-24T01:49:30.468Z,3.60
2019-03-24T01:51:58.920Z,3.60
2019-03-24T01:54:27.412Z,3.50
2019-03-24T01:56:55.871Z,3.50
2019-03-24T01:59:24.332Z,3.50
2019-03-24T02:01:52.828Z,3.50
2019-03-24T02:04:21.287Z,3.50
2019-03-24T02:06:49.813Z,3.40
2019-03-24T02:09:18.375Z,3.40
2019-03-24T02:11:46.835Z,3.40
2019-03-24T02:14:15.296Z,3.30
2019-03-24T02:16:43.822Z,3.30
2019-03-24T02:19:12.272Z,3.30
2019-03-24T02:21:40.742Z,3.30
2019-03-24T02:24:09.300Z,3.30
2019-03-24T02:26:37.760Z,3.30
2019-03-24T02:29:06.199Z,3.30
2019-03-24T02:31:34.707Z,3.30
2019-03-24T02:34:03.178Z,3.30
2019-03-24T02:36:31.697Z,3.30
2019-03-24T02:39:00.186Z,3.30
2019-03-24T02:41:28.646Z,3.20
2019-03-24T02:43:57.104Z,3.30
2019-03-24T02:46:25.664Z,3.30
2019-03-24T02:48:54.126Z,3.30
2019-03-24T02:51:22.577Z,3.30
2019-03-24T02:53:51.116Z,3.20
2019-03-24T02:56:19.583Z,3.30
2019-03-24T02:58:48.105Z,3.20
2019-03-24T03:01:16.678Z,3.20
2019-03-24T03:03:45.135Z,3.20
2019-03-24T03:06:13.795Z,3.20
2019-03-24T03:08:42.297Z,3.20
2019-03-24T03:11:10.817Z,3.30
2019-03-24T03:13:39.262Z,3.30
2019-03-24T03:16:07.943Z,3.20
2019-03-24T03:18:55.734Z,3.30
2019-03-24T03:21:24.358Z,3.30
2019-03-24T03:23:52.887Z,3.30
2019-03-24T03:26:21.464Z,3.30
2019-03-24T03:28:50.029Z,3.30
2019-03-24T03:31:18.553Z,3.30
2019-03-24T03:33:47.017Z,3.30
2019-03-24T03:36:15.592Z,3.20
2019-03-24T03:38:44.135Z,3.20
2019-03-24T03:41:12.637Z,3.20
2019-03-24T03:43:41.214Z,3.20
2019-03-24T03:46:09.668Z,3.20
2019-03-24T03:48:38.121Z,3.10
2019-03-24T03:51:06.629Z,3.10
2019-03-24T03:53:35.154Z,3.10
2019-03-24T03:56:03.787Z,3.10
2019-03-24T03:58:32.281Z,3.10
2019-03-24T04:01:00.736Z,3.10
2019-03-24T04:03:29.222Z,3.00
2019-03-24T04:05:57.716Z,3.10
2019-03-24T04:08:26.162Z,3.10
2019-03-24T04:10:54.619Z,3.10
2019-03-24T04:13:23.112Z,3.10
2019-03-24T04:15:51.792Z,3.10
2019-03-24T04:18:20.325Z,3.10
2019-03-24T04:20:48.886Z,3.10
2019-03-24T04:23:17.347Z,3.10
2019-03-24T04:25:45.874Z,3.10
2019-03-24T04:28:14.355Z,3.10
2019-03-24T04:30:42.808Z,3.10
2019-03-24T04:33:11.256Z,3.10
2019-03-24T04:35:39.757Z,3.10
2019-03-24T04:38:08.208Z,3.10
2019-03-24T04:40:36.656Z,3.10
2019-03-24T04:43:05.303Z,3.10
2019-03-24T04:45:33.756Z,3.10
2019-03-24T04:48:02.207Z,3.10
2019-03-24T04:50:30.706Z,3.10
2019-03-24T04:52:59.160Z,3.10
2019-03-24T04:55:27.612Z,3.20
2019-03-24T04:57:56.302Z,3.20
2019-03-24T05:00:35.815Z,3.10
2019-03-24T05:03:04.451Z,3.20
2019-03-24T05:05:33.343Z,3.20
2019-03-24T05:08:01.963Z,3.20
2019-03-24T05:10:30.691Z,3.20
2019-03-24T05:12:59.382Z,3.20
2019-03-24T05:15:27.914Z,3.20
2019-03-24T05:17:56.554Z,3.20
2019-03-24T05:20:25.003Z,3.20
2019-03-24T05:22:53.540Z,3.20
2019-03-24T05:25:23.694Z,3.20
2019-03-24T05:27:53.089Z,3.20
2019-03-24T05:30:21.538Z,3.20
2019-03-24T05:32:50.043Z,3.20
2019-03-24T05:35:18.509Z,3.30
2019-03-24T05:37:47.024Z,3.30
2019-03-24T05:40:15.542Z,3.30
2019-03-24T05:42:44.066Z,3.30
2019-03-24T05:45:12.690Z,3.40
2019-03-24T05:47:41.304Z,3.40
2019-03-24T05:50:10.091Z,3.40
2019-03-24T05:52:38.616Z,3.40
2019-03-24T05:55:07.404Z,3.50
2019-03-24T05:57:35.905Z,3.50
2019-03-24T06:00:06.579Z,3.50
2019-03-24T06:02:35.089Z,3.50
2019-03-24T06:05:03.644Z,3.60
2019-03-24T06:07:32.104Z,3.60
2019-03-24T06:10:00.604Z,3.70
2019-03-24T06:12:29.056Z,3.70
2019-03-24T06:14:57.513Z,3.70
2019-03-24T06:17:26.021Z,3.80
2019-03-24T06:19:54.640Z,3.80
2019-03-24T06:22:23.106Z,3.90
2019-03-24T06:24:51.678Z,3.90
2019-03-24T06:27:20.138Z,4.00
2019-03-24T06:29:48.587Z,4.00
2019-03-24T06:32:17.163Z,4.00
2019-03-24T06:34:45.681Z,4.10
2019-03-24T06:37:14.131Z,4.10
2019-03-24T06:39:42.647Z,4.20
2019-03-24T06:42:11.084Z,4.20
2019-03-24T06:44:39.541Z,4.30
2019-03-24T06:47:08.064Z,4.30
2019-03-24T06:49:36.517Z,4.30
2019-03-24T06:52:05.216Z,4.40
2019-03-24T06:54:33.788Z,4.40
2019-03-24T06:57:02.250Z,4.50
2019-03-24T06:59:30.716Z,4.50
2019-03-24T07:01:59.310Z,4.60
2019-03-24T07:04:27.815Z,4.60
2019-03-24T07:06:56.270Z,4.60
2019-03-24T07:09:37.649Z,4.60
2019-03-24T07:12:06.116Z,4.70
2019-03-24T07:14:34.577Z,4.70
2019-03-24T07:17:03.172Z,4.70
2019-03-24T07:19:31.694Z,4.80
2019-03-24T07:22:00.152Z,4.80
2019-03-24T07:24:28.664Z,4.80
2019-03-24T07:26:57.198Z,4.90
2019-03-24T07:29:25.766Z,4.90
2019-03-24T07:31:55.031Z,4.90
2019-03-24T07:34:23.475Z,5.00
2019-03-24T07:36:51.960Z,5.00
2019-03-24T07:39:20.594Z,5.10
2019-03-24T07:41:49.120Z,5.10
2019-03-24T07:44:17.564Z,5.10
2019-03-24T07:46:46.145Z,5.20
2019-03-24T07:49:14.606Z,5.20
2019-03-24T07:51:43.058Z,5.20
2019-03-24T07:54:11.575Z,5.20
2019-03-24T07:56:40.112Z,5.30
2019-03-24T07:59:08.563Z,5.40
2019-03-24T08:01:37.073Z,5.50
2019-03-24T08:04:06.080Z,5.50
2019-03-24T08:06:34.740Z,5.50
2019-03-24T08:09:05.064Z,5.50
2019-03-24T08:11:33.592Z,5.60
2019-03-24T08:14:02.195Z,5.60
2019-03-24T08:16:30.707Z,5.60
2019-03-24T08:18:59.237Z,5.60
2019-03-24T08:21:27.695Z,5.60
2019-03-24T08:23:56.593Z,5.70
2019-03-24T08:26:25.220Z,5.80
2019-03-24T08:28:53.680Z,5.70
2019-03-24T08:31:22.314Z,5.80
2019-03-24T08:33:50.864Z,5.90
2019-03-24T08:36:19.413Z,6.00
2019-03-24T08:38:47.925Z,6.00
2019-03-24T08:41:16.506Z,6.10
2019-03-24T08:43:44.957Z,6.20
2019-03-24T08:46:13.459Z,6.20
2019-03-24T08:48:41.936Z,6.20
2019-03-24T08:51:10.535Z,6.20
2019-03-24T08:53:39.043Z,6.20
2019-03-24T08:56:09.115Z,6.20
2019-03-24T08:58:37.674Z,6.30
2019-03-24T09:01:06.187Z,6.30
2019-03-24T09:03:34.712Z,6.30
2019-03-24T09:06:03.240Z,6.20
2019-03-24T09:08:31.843Z,6.20
2019-03-24T09:11:00.374Z,6.20
2019-03-24T09:13:28.859Z,6.20
2019-03-24T09:15:57.385Z,6.30
2019-03-24T09:18:25.899Z,6.30
2019-03-24T09:20:54.360Z,6.40
2019-03-24T09:23:22.929Z,6.40
2019-03-24T09:25:51.383Z,6.50
2019-03-24T09:28:19.911Z,6.50
2019-03-24T09:30:48.418Z,6.50
2019-03-24T09:33:17.035Z,6.70
2019-03-24T09:35:45.660Z,6.60
2019-03-24T09:38:14.152Z,6.60
2019-03-24T09:40:42.635Z,6.60
2019-03-24T09:43:11.135Z,6.70
2019-03-24T09:45:39.658Z,6.80
2019-03-24T09:48:08.163Z,6.80
2019-03-24T09:50:36.695Z,6.60
2019-03-24T09:53:05.425Z,6.70
2019-03-24T09:55:33.957Z,6.70
2019-03-24T09:58:02.418Z,6.60
2019-03-24T10:00:30.932Z,6.60
2019-03-24T10:02:59.383Z,6.60
2019-03-24T10:05:27.925Z,6.70
2019-03-24T10:07:57.187Z,6.90
2019-03-24T10:10:25.715Z,7.20
2019-03-24T10:12:54.247Z,7.20
2019-03-24T10:15:22.821Z,7.20
2019-03-24T10:17:51.274Z,7.20
2019-03-24T10:20:19.743Z,7.20
2019-03-24T10:22:48.243Z,7.30
2019-03-24T10:25:16.937Z,7.20
2019-03-24T10:27:45.456Z,7.30
2019-03-24T10:30:14.307Z,7.30
2019-03-24T10:32:42.954Z,7.30
2019-03-24T10:35:11.648Z,7.00
2019-03-24T10:37:40.164Z,7.00
2019-03-24T10:40:29.182Z,7.00
2019-03-24T10:42:57.863Z,7.00
2019-03-24T10:45:26.318Z,7.00
2019-03-24T10:47:55.393Z,7.10
2019-03-24T10:50:23.952Z,7.20
2019-03-24T10:52:52.480Z,7.30
2019-03-24T10:55:20.962Z,7.40
2019-03-24T10:57:49.440Z,7.50
2019-03-24T11:00:21.035Z,7.50
2019-03-24T11:02:49.499Z,7.60
2019-03-24T11:05:18.015Z,7.60
2019-03-24T11:07:46.477Z,7.80
2019-03-24T11:10:15.170Z,7.80
2019-03-24T11:12:43.736Z,7.90
2019-03-24T11:15:12.426Z,8.00
2019-03-24T11:17:40.875Z,7.90
2019-03-24T11:20:10.009Z,7.90
2019-03-24T11:22:38.457Z,7.90
2019-03-24T11:25:08.752Z,8.00
2019-03-24T11:27:37.793Z,8.20
2019-03-24T11:30:09.330Z,8.20
2019-03-24T11:32:38.022Z,8.10
2019-03-24T11:35:07.751Z,8.20
2019-03-24T11:37:36.218Z,8.00
2019-03-24T11:40:06.773Z,8.00
2019-03-24T11:42:35.439Z,8.00
2019-03-24T11:45:08.587Z,8.20
2019-03-24T11:47:37.249Z,8.20
2019-03-24T11:50:08.797Z,8.30
2019-03-24T11:52:37.861Z,8.20
2019-03-24T11:55:09.129Z,8.30
2019-03-24T11:57:38.055Z,8.40
2019-03-24T12:00:14.711Z,8.30
2019-03-24T12:02:43.222Z,8.50
2019-03-24T12:05:12.115Z,8.70
2019-03-24T12:08:00.005Z,8.70
2019-03-24T12:10:28.586Z,8.70
2019-03-24T12:12:57.045Z,8.80
2019-03-24T12:15:25.531Z,8.60
2019-03-24T12:17:53.984Z,8.80
2019-03-24T12:20:22.509Z,8.70
2019-03-24T12:22:51.071Z,8.80
2019-03-24T12:25:19.525Z,8.70
2019-03-24T12:27:48.045Z,8.70
2019-03-24T12:30:16.780Z,8.70
2019-03-24T12:32:45.366Z,8.60
2019-03-24T12:35:13.978Z,8.70
2019-03-24T12:37:42.538Z,8.80
2019-03-24T12:40:11.327Z,8.90
2019-03-24T12:42:39.805Z,9.00
2019-03-24T12:45:27.861Z,8.90
2019-03-24T12:47:57.217Z,9.10
2019-03-24T12:50:31.311Z,8.90
2019-03-24T12:52:55.966Z,9.00
2019-03-24T12:55:24.502Z,8.80
2019-03-24T12:57:53.234Z,8.70
2019-03-24T13:00:30.583Z,8.50
2019-03-24T13:02:59.060Z,8.80
2019-03-24T13:05:27.569Z,8.70
2019-03-24T13:07:59.641Z,8.40
2019-03-24T13:10:28.094Z,8.40
2019-03-24T13:12:56.671Z,8.50
2019-03-24T13:15:25.171Z,8.50
2019-03-24T13:17:53.628Z,8.40
2019-03-24T13:20:36.582Z,8.30
2019-03-24T13:22:52.422Z,8.40
2019-03-24T13:25:20.886Z,8.40
2019-03-24T13:27:49.404Z,8.40
2019-03-24T13:30:18.048Z,8.50
2019-03-24T13:32:46.508Z,8.50
2019-03-24T13:35:14.974Z,8.60
2019-03-24T13:37:43.557Z,8.50
2019-03-24T13:40:12.081Z,8.40
2019-03-24T13:42:40.604Z,8.50
2019-03-24T13:45:09.440Z,8.60
2019-03-24T13:47:37.900Z,8.60
2019-03-24T13:50:07.588Z,8.70
2019-03-24T13:52:36.132Z,8.80
2019-03-24T13:55:06.307Z,8.70
2019-03-24T13:57:35.475Z,8.60
2019-03-24T14:00:06.594Z,8.60
2019-03-24T14:02:35.109Z,8.70
2019-03-24T14:05:03.632Z,8.70
2019-03-24T14:07:32.125Z,8.80
2019-03-24T14:10:00.786Z,8.80
2019-03-24T14:12:29.314Z,8.80
2019-03-24T14:14:57.817Z,8.80
2019-03-24T14:17:26.344Z,8.60
2019-03-24T14:19:54.809Z,8.50
2019-03-24T14:22:23.353Z,8.40
2019-03-24T14:24:51.818Z,8.40
2019-03-24T14:27:20.352Z,8.30
2019-03-24T14:29:48.882Z,8.20
2019-03-24T14:32:17.332Z,8.20
2019-03-24T14:34:45.787Z,8.30
2019-03-24T14:37:14.425Z,8.40
2019-03-24T14:39:42.884Z,8.50
2019-03-24T14:42:11.412Z,8.80
2019-03-24T14:44:39.914Z,8.80
2019-03-24T14:47:08.640Z,8.70
2019-03-24T14:49:37.163Z,8.50
2019-03-24T14:52:05.729Z,8.50
2019-03-24T14:54:34.254Z,8.40
2019-03-24T14:57:02.823Z,8.30
2019-03-24T14:59:31.380Z,8.20
2019-03-24T15:02:00.698Z,8.20
2019-03-24T15:04:29.169Z,8.20
2019-03-24T15:06:57.729Z,8.40
2019-03-24T15:09:26.192Z,8.50
2019-03-24T15:11:54.666Z,8.80
2019-03-24T15:14:23.453Z,9.00
2019-03-24T15:16:51.974Z,9.60
2019-03-24T15:19:20.454Z,9.70
2019-03-24T15:21:49.093Z,10.60
2019-03-24T15:24:17.637Z,10.90
2019-03-24T15:26:46.088Z,11.10
2019-03-24T15:29:14.661Z,10.60
2019-03-24T15:31:43.125Z,10.70
2019-03-24T15:34:11.606Z,10.40
2019-03-24T15:36:40.140Z,10.80
2019-03-24T15:39:09.577Z,11.20
2019-03-24T15:41:38.126Z,11.40
2019-03-24T15:44:06.778Z,11.60
2019-03-24T15:46:35.290Z,11.90
2019-03-24T15:49:03.936Z,11.80
2019-03-24T15:51:32.442Z,11.60
2019-03-24T15:54:01.090Z,12.20
2019-03-24T15:56:29.562Z,11.90
2019-03-24T15:58:58.127Z,11.60
2019-03-24T16:01:26.591Z,11.40
2019-03-24T16:03:55.069Z,11.60
2019-03-24T16:06:23.577Z,11.50
2019-03-24T16:08:52.036Z,11.70
2019-03-24T16:11:20.563Z,11.20
2019-03-24T16:13:49.165Z,10.70
2019-03-24T16:16:17.716Z,10.40
2019-03-24T16:18:46.178Z,10.40
2019-03-24T16:21:14.718Z,10.10
2019-03-24T16:23:43.160Z,9.90
2019-03-24T16:26:11.622Z,9.80
2019-03-24T16:28:40.117Z,9.70
2019-03-24T16:31:08.640Z,9.60
2019-03-24T16:33:37.083Z,9.60
2019-03-24T16:36:05.808Z,9.30
2019-03-24T16:38:34.275Z,9.00
2019-03-24T16:41:02.734Z,8.70
2019-03-24T16:43:31.243Z,8.50
2019-03-24T16:46:00.044Z,8.30
2019-03-24T16:48:36.391Z,7.90
2019-03-24T16:50:58.823Z,7.70
2019-03-24T16:53:27.355Z,7.60
2019-03-24T16:55:58.638Z,7.40
2019-03-24T16:58:27.138Z,7.30
2019-03-24T17:00:55.659Z,7.20
2019-03-24T17:03:24.121Z,7.20
2019-03-24T17:05:52.806Z,7.00
2019-03-24T17:08:21.332Z,7.00
2019-03-24T17:10:49.918Z,7.00
2019-03-24T17:13:18.662Z,6.80
2019-03-24T17:15:47.190Z,6.70
2019-03-24T17:18:15.881Z,6.70
2019-03-24T17:20:44.461Z,6.70
2019-03-24T17:23:12.918Z,6.70
2019-03-24T17:25:41.464Z,6.60
2019-03-24T17:28:09.975Z,6.60
2019-03-24T17:30:38.684Z,6.60
2019-03-24T17:33:07.153Z,6.50
2019-03-24T17:35:35.974Z,6.50
2019-03-24T17:38:04.718Z,6.50
2019-03-24T17:40:38.879Z,6.40
2019-03-24T17:43:03.738Z,6.40
2019-03-24T17:45:32.239Z,6.40
2019-03-24T17:48:04.015Z,6.30
2019-03-24T17:50:31.876Z,6.30
2019-03-24T17:53:00.400Z,6.20
2019-03-24T17:55:30.988Z,6.20
2019-03-24T17:57:59.162Z,6.20
2019-03-24T18:00:36.140Z,6.20
2019-03-24T18:03:04.825Z,6.20
2019-03-24T18:05:33.336Z,6.20
2019-03-24T18:08:04.769Z,6.30
2019-03-24T18:10:33.345Z,6.30
2019-03-24T18:13:01.875Z,6.20
2019-03-24T18:15:30.412Z,6.20
2019-03-24T18:18:01.167Z,6.20
2019-03-24T18:20:34.719Z,6.10
2019-03-24T18:23:03.319Z,6.10
2019-03-24T18:25:32.013Z,6.00
2019-03-24T18:28:00.659Z,6.00
2019-03-24T18:30:29.407Z,6.00
2019-03-24T18:32:58.158Z,6.00
2019-03-24T18:35:26.651Z,6.00
2019-03-24T18:37:55.259Z,6.00
2019-03-24T18:40:24.105Z,6.00
2019-03-24T18:42:52.807Z,6.00
2019-03-24T18:45:21.782Z,6.00
2019-03-24T18:47:50.432Z,6.00
2019-03-24T18:50:19.046Z,6.00
2019-03-24T18:52:50.003Z,5.90
2019-03-24T18:55:17.854Z,5.90
2019-03-24T18:57:46.336Z,5.90
2019-03-24T19:00:15.537Z,5.90
2019-03-24T19:02:44.090Z,5.90
2019-03-24T19:05:12.801Z,5.90
2019-03-24T19:07:41.247Z,5.80
2019-03-24T19:10:11.588Z,5.80
2019-03-24T19:12:40.281Z,5.70
2019-03-24T19:15:11.460Z,5.70
2019-03-24T19:17:40.016Z,5.60
2019-03-24T19:20:09.815Z,5.60
2019-03-24T19:22:38.351Z,5.50
2019-03-24T19:25:09.224Z,5.50
2019-03-24T19:27:37.683Z,5.40
2019-03-24T19:30:11.871Z,5.40
2019-03-24T19:32:40.553Z,5.30
2019-03-24T19:35:09.952Z,5.30
2019-03-24T19:37:38.950Z,5.30
2019-03-24T19:40:28.405Z,5.30
2019-03-24T19:42:58.085Z,5.30
2019-03-24T19:45:26.812Z,5.30
2019-03-24T19:47:56.206Z,5.30
2019-03-24T19:50:25.188Z,5.40
2019-03-24T19:52:53.705Z,5.40
2019-03-24T19:55:22.157Z,5.40
2019-03-24T19:57:50.663Z,5.40
2019-03-24T20:00:19.195Z,5.40
2019-03-24T20:02:47.724Z,5.40
2019-03-24T20:05:16.296Z,5.40
2019-03-24T20:07:48.114Z,5.40
2019-03-24T20:10:15.351Z,5.40
2019-03-24T20:12:43.981Z,5.40
2019-03-24T20:15:12.767Z,5.40
2019-03-24T20:17:41.224Z,5.40
2019-03-24T20:20:10.511Z,5.40
2019-03-24T20:22:39.251Z,5.50
2019-03-24T20:25:07.803Z,5.50
2019-03-24T20:27:36.417Z,5.50
2019-03-24T20:30:12.565Z,5.50
2019-03-24T20:32:41.102Z,5.50
2019-03-24T20:35:28.901Z,5.50
2019-03-24T20:37:57.403Z,5.60
2019-03-24T20:40:25.948Z,5.60
2019-03-24T20:42:54.512Z,5.60
2019-03-24T20:45:23.013Z,5.60
2019-03-24T20:47:51.531Z,5.60
2019-03-24T20:50:20.003Z,5.60
2019-03-24T20:52:48.617Z,5.50
2019-03-24T20:55:17.065Z,5.50
2019-03-24T20:57:45.536Z,5.50
2019-03-24T21:00:24.092Z,5.50
2019-03-24T21:02:52.573Z,5.40
2019-03-24T21:05:21.107Z,5.40
2019-03-24T21:07:49.620Z,5.40
2019-03-24T21:10:18.218Z,5.40
2019-03-24T21:12:46.758Z,5.40
2019-03-24T21:15:15.343Z,5.40
2019-03-24T21:17:43.959Z,5.40
2019-03-24T21:20:12.547Z,5.30
2019-03-24T21:22:41.068Z,5.30
2019-03-24T21:25:10.430Z,5.30
2019-03-24T21:27:38.888Z,5.30
2019-03-24T21:30:08.914Z,5.20
2019-03-24T21:32:37.382Z,5.20
2019-03-24T21:35:09.344Z,5.10
2019-03-24T21:37:37.831Z,5.10
2019-03-24T21:40:07.336Z,5.00
2019-03-24T21:42:35.900Z,5.00
2019-03-24T21:45:07.183Z,5.00
2019-03-24T21:47:35.691Z,4.90
2019-03-24T21:50:06.358Z,4.90
2019-03-24T21:52:34.957Z,4.80
2019-03-24T21:55:03.494Z,4.80
2019-03-24T21:57:32.015Z,4.80
2019-03-24T22:00:00.533Z,4.70
2019-03-24T22:02:29.156Z,4.70
2019-03-24T22:04:57.702Z,4.70
2019-03-24T22:07:26.216Z,4.70
2019-03-24T22:09:54.697Z,4.70
2019-03-24T22:12:23.151Z,4.70
2019-03-24T22:14:51.655Z,4.70
2019-03-24T22:17:20.105Z,4.80
2019-03-24T22:19:48.571Z,4.70
2019-03-24T22:22:17.323Z,4.70
2019-03-24T22:24:45.805Z,4.80
2019-03-24T22:27:14.346Z,4.80
2019-03-24T22:29:42.953Z,4.80
2019-03-24T22:32:11.445Z,4.80
2019-03-24T22:34:39.917Z,4.80
2019-03-24T22:37:15.765Z,4.80
2019-03-24T22:39:38.608Z,4.80
2019-03-24T22:42:07.125Z,4.80
2019-03-24T22:44:35.813Z,4.80
2019-03-24T22:47:04.347Z,4.80
2019-03-24T22:49:32.799Z,4.80
2019-03-24T22:52:07.193Z,4.80
2019-03-24T22:54:31.585Z,4.70
2019-03-24T22:57:00.071Z,4.70
2019-03-24T22:59:28.968Z,4.70
2019-03-24T23:01:57.500Z,4.70
2019-03-24T23:04:26.019Z,4.70
2019-03-24T23:06:54.531Z,4.70
2019-03-24T23:09:22.979Z,4.70
2019-03-24T23:11:51.459Z,4.60
2019-03-24T23:14:19.953Z,4.60
2019-03-24T23:16:48.415Z,4.60
2019-03-24T23:19:16.882Z,4.60
2019-03-24T23:21:45.428Z,4.60
2019-03-24T23:24:15.798Z,4.60
2019-03-24T23:26:44.200Z,4.60
2019-03-24T23:29:12.742Z,4.60
2019-03-24T23:31:41.247Z,4.60
2019-03-24T23:34:09.706Z,4.60
2019-03-24T23:36:38.291Z,4.60
2019-03-24T23:39:07.384Z,4.50
2019-03-24T23:41:35.910Z,4.60
2019-03-24T23:44:23.735Z,4.60
2019-03-24T23:46:52.270Z,4.60
2019-03-24T23:49:20.714Z,4.60
2019-03-24T23:51:49.242Z,4.50
2019-03-24T23:54:26.542Z,4.50
2019-03-24T23:57:07.268Z,4.50
2019-03-24T23:59:35.733Z,4.60
